Flight Track Log - Related Links

Times and Time Zones

All times are in EDT time to prevent confusion due to time zone crossing. See the ASQ5362 flight status page for this flight to view local times or setup timezone preferences in your user account.

Time Position Orientation Groundspeed Altitude Reporting Facility
EDT Latitude Longitude Course Direction KTS MPH feet Rate Location/Type
Sun 07:07:08 AM 32.4572 -93.8436 317° Northwest 157 181 1,000  Level Fort Worth Center
Sun 07:07:26 AM 32.4658 -93.8531 317° Northwest 152 175 1,900 2,687 Climbing Fort Worth Center
Sun 07:08:15 AM 32.5075 -93.8514 North 211 243 4,000 2,477 Climbing Fort Worth Center
Sun 07:09:15 AM 32.5347 -93.7836 65° Northeast 286 329 6,400 2,850 Climbing Fort Worth Center
Sun 07:10:15 AM 32.5675 -93.6889 68° East 286 329 9,700 2,450 Climbing Fort Worth Center
Sun 07:11:15 AM 32.5747 -93.5800 85° East 309 356 11,300 1,650 Climbing Fort Worth Center
Sun 07:12:15 AM 32.5708 -93.4569 92° East 356 410 13,000 1,800 Climbing Fort Worth Center
Sun 07:13:15 AM 32.5664 -93.3217 92° East 395 455 14,900 1,700 Climbing Fort Worth Center
Sun 07:14:15 AM 32.5619 -93.1861 92° East 402 463 16,400 1,500 Climbing Fort Worth Center
Sun 07:15:15 AM 32.5592 -93.0458 91° East 414 476 17,900 1,050 Climbing Fort Worth Center
Sun 07:16:15 AM 32.5586 -92.9103 90° East 431 496 18,500 750 Climbing Fort Worth Center
Sun 07:17:15 AM 32.5572 -92.7578 91° East 449 517 19,400 900 Climbing Fort Worth Center
Sun 07:18:15 AM 32.5533 -92.6003 92° East 463 533 20,300 950 Climbing Fort Worth Center
Sun 07:19:15 AM 32.5433 -92.4481 94° East 469 540 21,300 1,005 Climbing Fort Worth Center
Sun 07:21:44 AM 32.5314 -92.0303 92° East 481 554 23,800 1,033 Climbing Memphis Center
Sun 07:22:44 AM 32.5250 -91.8850 93° East 481 554 24,900 850 Climbing Memphis Center
Sun 07:23:44 AM 32.5164 -91.7247 94° East 481 554 25,500 600 Climbing Memphis Center
Sun 07:24:44 AM 32.5117 -91.5619 92° East 481 554 26,100 550 Climbing Memphis Center
Sun 07:25:44 AM 32.5028 -91.3894 93° East 492 566 26,600 450 Climbing Memphis Center
Sun 07:26:44 AM 32.4978 -91.2219 92° East 504 580 27,000 200 Climbing Memphis Center
Sun 07:27:44 AM 32.4925 -91.0494 92° East 509 586 27,000  Level Memphis Center
Sun 07:28:44 AM 32.4850 -90.8769 93° East 522 601 27,000  Level Memphis Center
Sun 07:29:44 AM 32.4772 -90.7019 93° East 527 606 27,000  Level Memphis Center
Sun 07:30:44 AM 32.4714 -90.5247 92° East 527 606 27,000  Level Memphis Center
Sun 07:31:44 AM 32.4611 -90.3547 94° East 532 612 27,000  Level Memphis Center
Sun 07:32:44 AM 32.4525 -90.1800 93° East 526 605 27,000  Level Memphis Center
Sun 07:33:44 AM 32.4439 -89.9931 93° East 521 600 27,000  Level Memphis Center
Sun 07:34:44 AM 32.4347 -89.8231 94° East 516 594 27,000  Level Memphis Center
Sun 07:35:44 AM 32.4278 -89.6508 93° East 516 594 27,000  Level Memphis Center
Sun 07:36:44 AM 32.4183 -89.4811 94° East 516 594 27,000  Level Memphis Center
Sun 07:37:44 AM 32.4086 -89.3114 94° East 516 594 27,000  Level Memphis Center
Sun 07:38:44 AM 32.4008 -89.1419 93° East 516 594 27,000  Level Memphis Center
Sun 07:39:44 AM 32.3908 -88.9747 94° East 516 594 27,000  Level Memphis Center
Sun 07:40:44 AM 32.3825 -88.8075 93° East 516 594 27,000  Level Memphis Center
Sun 07:41:44 AM 32.3992 -88.6425 83° East 516 594 27,000  Level Memphis Center
Sun 07:43:58 AM 32.4419 -88.2769 82° East 509 586 27,000  Level Atlanta Center
Sun 07:44:58 AM 32.4622 -88.1106 82° East 509 586 27,000  Level Atlanta Center
Sun 07:45:58 AM 32.4886 -87.9394 80° East 520 598 27,000  Level Atlanta Center
Sun 07:46:58 AM 32.5292 -87.7736 74° East 525 604 27,000  Level Atlanta Center
Sun 07:47:58 AM 32.5633 -87.6025 77° East 525 604 27,000  Level Atlanta Center
Sun 07:48:58 AM 32.6017 -87.4267 75° East 530 610 27,000 -200 Level Atlanta Center
Sun 07:49:58 AM 32.6375 -87.2578 76° East 530 610 26,600 -600 Descending Atlanta Center
Sun 07:50:58 AM 32.6733 -87.0864 76° East 525 604 25,800 -800 Descending Atlanta Center
Sun 07:51:58 AM 32.7064 -86.9247 76° East 520 598 25,000 -800 Descending Atlanta Center
Sun 07:52:58 AM 32.7414 -86.7653 75° East 510 587 24,200 -500 Descending Atlanta Center
Sun 07:53:58 AM 32.7717 -86.6156 76° East 490 564 24,000 -100 Descending Atlanta Center
Sun 07:54:58 AM 32.7994 -86.4778 76° East 459 528 24,000  Level Atlanta Center
Sun 07:55:58 AM 32.8272 -86.3378 77° East 442 509 24,000  Level Atlanta Center
Sun 07:56:58 AM 32.8506 -86.2000 79° East 428 493 24,000  Level Atlanta Center
Sun 07:57:58 AM 32.8614 -86.0567 85° East 428 493 24,000 -750 Level Atlanta Center
Sun 07:58:58 AM 32.8194 -85.9372 113° Southeast 398 458 22,500 -1,500 Descending Atlanta Center
Sun 07:59:58 AM 32.7772 -85.8250 114° Southeast 374 430 21,000 -1,600 Descending Atlanta Center
Sun 08:00:58 AM 32.7350 -85.7181 115° Southeast 369 425 19,300 -1,000 Descending Atlanta Center
Sun 08:01:58 AM 32.7200 -85.5992 98° East 351 404 19,000 -150 Descending Atlanta Center
Sun 08:02:58 AM 32.7942 -85.5067 46° Northeast 330 380 19,000 -250 Level Atlanta Center
Sun 08:03:58 AM 32.8722 -85.4139 45° Northeast 345 397 18,500 -1,150 Descending Atlanta Center
Sun 08:04:58 AM 32.9483 -85.3261 44° Northeast 370 426 16,700 -1,800 Descending Atlanta Center
Sun 08:05:58 AM 33.0203 -85.2403 45° Northeast 370 426 14,900 -1,350 Descending Atlanta Center
Sun 08:06:58 AM 33.0900 -85.1569 45° Northeast 352 405 14,000 -450 Descending Atlanta Center
Sun 08:07:58 AM 33.1556 -85.0686 48° Northeast 352 405 14,000 -100 Level Atlanta Center
Sun 08:08:58 AM 33.2144 -84.9897 48° Northeast 352 405 13,800 -900 Descending Atlanta Center
Sun 08:09:58 AM 33.2797 -84.9061 47° Northeast 352 405 12,200 -900 Descending Atlanta Center
Sun 08:10:58 AM 33.3431 -84.8197 49° Northeast 340 391 12,000 -105 Descending Atlanta Center
Sun 08:11:52 AM 33.4000 -84.7333 52° Northeast 341 392 12,000  Level Atlanta TRACON
Sun 08:12:58 AM 33.4833 -84.6333 45° Northeast 339 390 12,000 -47 Level Atlanta TRACON
Sun 08:13:59 AM 33.5333 -84.5500 54° Northeast 309 356 11,900 -1,140 Descending Atlanta TRACON
Sun 08:14:59 AM 33.5500 -84.4667 76° East 281 323 9,700 -2,250 Descending Atlanta TRACON
Sun 08:15:59 AM 33.5500 -84.3833 90° East 269 310 7,400 -1,667 Descending Atlanta TRACON
Sun 08:17:05 AM 33.5500 -84.2833 90° East 265 305 6,200 -1,619 Descending Atlanta TRACON
Sun 08:18:05 AM 33.5500 -84.2000 90° East 247 284 4,000 -1,600 Descending Atlanta TRACON
Sun 08:19:05 AM 33.5500 -84.1167 90° East 223 257 3,000 -526 Descending Atlanta TRACON
Sun 08:19:59 AM 33.5667 -84.0833 59° Northeast 202 232 3,000  Level Atlanta TRACON
Sun 08:20:59 AM 33.6167 -84.1167 331° Northwest 195 224 3,000  Level Atlanta TRACON
Sun 08:21:59 AM 33.6167 -84.1833 270° West 193 222 3,000  Level Atlanta TRACON
Sun 08:23:05 AM 33.6167 -84.2500 270° West 189 217 3,000 -50 Level Atlanta TRACON
Sun 08:23:59 AM 33.6167 -84.3000 270° West 178 205 2,900 -474 Descending Atlanta TRACON
Sun 08:24:59 AM 33.6167 -84.3500 270° West 140 161 2,100 -750 Descending Atlanta TRACON
Sun 08:25:59 AM 33.6167 -84.4000 270° West 137 158 1,400 -700 Descending Atlanta TRACON
Sun 08:27:00 AM 33.6333 -84.4167 301° West  Level FlightAware Approximate
Sun 08:34:00 AM 33.6367 -84.4279 301° West  Level Estimated

Login

Don't have an account? Register now (free) for customized features, flight alerts, and more!